MSC Levina — 3FJR8 — position and weather

sailwx.info

Track history (hours):
 
Tides and Currents Weather Stations Pressure Air Temp Water Temp Dewpoint Dewpoint Depression Visibility Wind Speed Wind Dir Waves Ship Positions

MSC Levina

Last reported at 2017-Feb-20 21:19 UTC. Time now 2017-Feb-22 22:03 UTC.
Position N 34°46' E 139°35'.

Length 227.6 m; beam 32.2 m; draft 12.1 m.

Type: Ship. MMSI: 355609000.

Date/timePositionNaut miles runAvg speedWind from/ knotsBaromVisibWave heightAir tempDewpointWater temp
2017-Feb-20 21:19N 34°46' E 139°35'1215.8
2017-Feb-20 20:33N 34°58' E 139°39'1515.4
2017-Feb-20 19:33N 35°12' E 139°46'1111.3
2017-Feb-20 18:33N 35°23' E 139°42'5 4.5
2017-Feb-20 17:31N 35°28' E 139°42'0 0.0
2017-Feb-20 16:31N 35°28' E 139°42'0 0.0
2017-Feb-20 15:31N 35°28' E 139°42'0 0.0
2017-Feb-20 14:31N 35°28' E 139°42'0 0.0
2017-Feb-20 13:31N 35°28' E 139°42'0 0.0
2017-Feb-20 12:31N 35°28' E 139°42'0 0.0
2017-Feb-20 11:31N 35°28' E 139°42'0 0.0
2017-Feb-20 10:31N 35°28' E 139°42'0 0.0
2017-Feb-20 09:31N 35°28' E 139°42'0 0.0
2017-Feb-20 08:31N 35°28' E 139°42'0 0.0
2017-Feb-20 07:31N 35°28' E 139°42'0 0.0
2017-Feb-20 06:31N 35°28' E 139°42'0 0.0
2017-Feb-20 05:31N 35°28' E 139°42'0 0.0
2017-Feb-20 04:31N 35°28' E 139°42'0 0.0
2017-Feb-20 03:31N 35°28' E 139°42'0 0.0
2017-Feb-20 02:31N 35°28' E 139°42'0 0.0
2017-Feb-20 01:31N 35°28' E 139°42'0 0.0
2017-Feb-20 00:31N 35°28' E 139°42'0 0.0
2017-Feb-19 23:31N 35°28' E 139°42'0 0.0
2017-Feb-19 22:31N 35°28' E 139°42'2 2.0
2017-Feb-19 21:33N 35°27' E 139°44'7 6.9
2017-Feb-19 20:33N 35°30' E 139°51'7 6.3
2017-Feb-19 19:24N 35°37' E 139°47'0 0.0
2017-Feb-19 18:30N 35°37' E 139°47'0 0.0
2017-Feb-19 17:30N 35°37' E 139°47'0 0.0
2017-Feb-19 16:33N 35°37' E 139°47'0 0.0
2017-Feb-19 15:33N 35°37' E 139°47'0 0.0
2017-Feb-19 14:33N 35°37' E 139°47'0 0.0
2017-Feb-19 13:33N 35°37' E 139°47'0 0.0
2017-Feb-19 12:33N 35°37' E 139°47'0 0.0
2017-Feb-19 11:33N 35°37' E 139°47'0 0.0
2017-Feb-19 10:33N 35°37' E 139°47'0 0.0
2017-Feb-19 09:33N 35°37' E 139°47'0 0.0
2017-Feb-19 08:33N 35°37' E 139°47'0 0.3
2017-Feb-19 07:33N 35°36' E 139°47'8 7.7
2017-Feb-19 06:33N 35°30' E 139°52'1312.9
2017-Feb-19 05:33N 35°19' E 139°44'1110.7
2017-Feb-19 04:34N 35°08' E 139°46'1515.1
2017-Feb-19 03:33N 34°55' E 139°37'  
Track history (hours):
 
Tides and Currents Weather Stations Pressure Air Temp Water Temp Dewpoint Dewpoint Depression Visibility Wind Speed Wind Dir Waves Ship Positions

MSC Levina

Last reported at 2017-Feb-20 21:19 UTC. Time now 2017-Feb-22 22:03 UTC.
Position N 34°46' E 139°35'.

Length 227.6 m; beam 32.2 m; draft 12.1 m.

Type: Ship. MMSI: 355609000.

Date/timePositionNaut miles runAvg speedWind from/ knotsBaromVisibWave heightAir tempDewpointWater temp
2017-Feb-20 21:19N 34°46' E 139°35'1215.8
2017-Feb-20 20:33N 34°58' E 139°39'1515.4
2017-Feb-20 19:33N 35°12' E 139°46'1111.3
2017-Feb-20 18:33N 35°23' E 139°42'5 4.5
2017-Feb-20 17:31N 35°28' E 139°42'0 0.0
2017-Feb-20 16:31N 35°28' E 139°42'0 0.0
2017-Feb-20 15:31N 35°28' E 139°42'0 0.0
2017-Feb-20 14:31N 35°28' E 139°42'0 0.0
2017-Feb-20 13:31N 35°28' E 139°42'0 0.0
2017-Feb-20 12:31N 35°28' E 139°42'0 0.0
2017-Feb-20 11:31N 35°28' E 139°42'0 0.0
2017-Feb-20 10:31N 35°28' E 139°42'0 0.0
2017-Feb-20 09:31N 35°28' E 139°42'0 0.0
2017-Feb-20 08:31N 35°28' E 139°42'0 0.0
2017-Feb-20 07:31N 35°28' E 139°42'0 0.0
2017-Feb-20 06:31N 35°28' E 139°42'0 0.0
2017-Feb-20 05:31N 35°28' E 139°42'0 0.0
2017-Feb-20 04:31N 35°28' E 139°42'0 0.0
2017-Feb-20 03:31N 35°28' E 139°42'0 0.0
2017-Feb-20 02:31N 35°28' E 139°42'0 0.0
2017-Feb-20 01:31N 35°28' E 139°42'0 0.0
2017-Feb-20 00:31N 35°28' E 139°42'0 0.0
2017-Feb-19 23:31N 35°28' E 139°42'0 0.0
2017-Feb-19 22:31N 35°28' E 139°42'2 2.0
2017-Feb-19 21:33N 35°27' E 139°44'7 6.9
2017-Feb-19 20:33N 35°30' E 139°51'7 6.3
2017-Feb-19 19:24N 35°37' E 139°47'0 0.0
2017-Feb-19 18:30N 35°37' E 139°47'0 0.0
2017-Feb-19 17:30N 35°37' E 139°47'0 0.0
2017-Feb-19 16:33N 35°37' E 139°47'0 0.0
2017-Feb-19 15:33N 35°37' E 139°47'0 0.0
2017-Feb-19 14:33N 35°37' E 139°47'0 0.0
2017-Feb-19 13:33N 35°37' E 139°47'0 0.0
2017-Feb-19 12:33N 35°37' E 139°47'0 0.0
2017-Feb-19 11:33N 35°37' E 139°47'0 0.0
2017-Feb-19 10:33N 35°37' E 139°47'0 0.0
2017-Feb-19 09:33N 35°37' E 139°47'0 0.0
2017-Feb-19 08:33N 35°37' E 139°47'0 0.3
2017-Feb-19 07:33N 35°36' E 139°47'8 7.7
2017-Feb-19 06:33N 35°30' E 139°52'1312.9
2017-Feb-19 05:33N 35°19' E 139°44'1110.7
2017-Feb-19 04:34N 35°08' E 139°46'1515.1
2017-Feb-19 03:33N 34°55' E 139°37'  

Dump ship's entire track history